CheckWX is a tool to help pilots better visualize weather data.  It is not intended as a substitute for an official pre-flight weather briefing.

14:16:47 UTC

KBWW METAR
Bowman Regional Airport
Bowman, North Dakota, USA
Current

22 mins ago

KBWW 221355Z AUTO 01007KT 10SM CLR 07/01 A3016 RMK AO2
Observed
Apr-22 @ 13:55 UTC
Wind
  • 010° at 7 KTS
Visibility
10 SM
Flight Rules
VFR
Cloud Levels
  • Clear skies
Temperature
C / 45°F
Dewpoint
C / 34°F
Humidity
66%
Altimeter
30.16" Hg
Pressure
1021.32 hPa
Previous

42 mins ago

KBWW 221335Z AUTO 01005KT 10SM CLR 07/01 A3015 RMK AO2
Observed
Apr-22 @ 13:35 UTC
Wind
  • 010° at 5 KTS
Visibility
10 SM
Flight Rules
VFR
Cloud Levels
  • Clear skies
Temperature
C / 45°F
Dewpoint
C / 34°F
Humidity
66%
Altimeter
30.15" Hg
Pressure
1021.02 hPa
Previous

1 hour ago

KBWW 221315Z AUTO 00000KT 10SM CLR 04/03 A3015 RMK AO2
Observed
Apr-22 @ 13:15 UTC
Visibility
10 SM
Flight Rules
VFR
Cloud Levels
  • Clear skies
Temperature
C / 39°F
Dewpoint
C / 37°F
Humidity
93%
Altimeter
30.15" Hg
Pressure
1021.02 hPa